sensor_id;sensor_type;location;lat;lon;timestamp;P1;durP1;ratioP1;P2;durP2;ratioP2
13331;SDS011;6735;51.456;12.626;2023-12-22T00:01:07;9.50;;;2.83;;
13331;SDS011;6735;51.456;12.626;2023-12-22T00:03:33;11.40;;;3.40;;
13331;SDS011;6735;51.456;12.626;2023-12-22T00:05:58;14.80;;;4.50;;
13331;SDS011;6735;51.456;12.626;2023-12-22T00:08:24;9.23;;;4.00;;
13331;SDS011;6735;51.456;12.626;2023-12-22T00:10:49;7.73;;;3.03;;
13331;SDS011;6735;51.456;12.626;2023-12-22T00:13:15;10.47;;;2.60;;
13331;SDS011;6735;51.456;12.626;2023-12-22T00:15:40;12.23;;;2.50;;
13331;SDS011;6735;51.456;12.626;2023-12-22T00:18:07;13.30;;;3.00;;
13331;SDS011;6735;51.456;12.626;2023-12-22T00:20:33;8.87;;;3.07;;
13331;SDS011;6735;51.456;12.626;2023-12-22T00:22:58;8.03;;;2.50;;
13331;SDS011;6735;51.456;12.626;2023-12-22T00:25:24;6.60;;;2.20;;
13331;SDS011;6735;51.456;12.626;2023-12-22T00:27:49;6.67;;;2.40;;
13331;SDS011;6735;51.456;12.626;2023-12-22T00:30:15;5.90;;;1.77;;
13331;SDS011;6735;51.456;12.626;2023-12-22T00:32:40;6.97;;;2.17;;
13331;SDS011;6735;51.456;12.626;2023-12-22T00:35:06;8.27;;;2.57;;
13331;SDS011;6735;51.456;12.626;2023-12-22T00:37:32;11.07;;;3.03;;
13331;SDS011;6735;51.456;12.626;2023-12-22T00:39:57;6.80;;;2.20;;
13331;SDS011;6735;51.456;12.626;2023-12-22T00:42:22;4.77;;;2.83;;
13331;SDS011;6735;51.456;12.626;2023-12-22T00:44:48;7.63;;;2.00;;
13331;SDS011;6735;51.456;12.626;2023-12-22T00:47:13;7.00;;;2.67;;
13331;SDS011;6735;51.456;12.626;2023-12-22T00:49:39;8.33;;;3.13;;
13331;SDS011;6735;51.456;12.626;2023-12-22T00:52:04;13.10;;;2.40;;
13331;SDS011;6735;51.456;12.626;2023-12-22T00:54:30;8.77;;;2.23;;
13331;SDS011;6735;51.456;12.626;2023-12-22T00:56:56;12.47;;;2.50;;
13331;SDS011;6735;51.456;12.626;2023-12-22T00:59:22;9.70;;;3.83;;
13331;SDS011;6735;51.456;12.626;2023-12-22T01:01:48;15.53;;;2.60;;
13331;SDS011;6735;51.456;12.626;2023-12-22T01:04:14;12.10;;;2.57;;
13331;SDS011;6735;51.456;12.626;2023-12-22T01:06:40;13.00;;;2.83;;
13331;SDS011;6735;51.456;12.626;2023-12-22T01:09:05;10.90;;;2.73;;
13331;SDS011;6735;51.456;12.626;2023-12-22T01:11:31;10.70;;;2.77;;
13331;SDS011;6735;51.456;12.626;2023-12-22T01:13:57;9.80;;;2.30;;
13331;SDS011;6735;51.456;12.626;2023-12-22T01:16:22;12.87;;;3.10;;
13331;SDS011;6735;51.456;12.626;2023-12-22T01:18:48;11.60;;;2.50;;
13331;SDS011;6735;51.456;12.626;2023-12-22T01:21:15;7.30;;;2.70;;
13331;SDS011;6735;51.456;12.626;2023-12-22T01:23:41;10.30;;;3.27;;
13331;SDS011;6735;51.456;12.626;2023-12-22T01:26:06;6.17;;;1.90;;
13331;SDS011;6735;51.456;12.626;2023-12-22T01:28:33;6.70;;;2.30;;
13331;SDS011;6735;51.456;12.626;2023-12-22T01:30:58;8.00;;;2.53;;
13331;SDS011;6735;51.456;12.626;2023-12-22T01:33:24;10.00;;;2.27;;
13331;SDS011;6735;51.456;12.626;2023-12-22T01:35:49;8.13;;;2.60;;
13331;SDS011;6735;51.456;12.626;2023-12-22T01:38:15;12.50;;;2.43;;
13331;SDS011;6735;51.456;12.626;2023-12-22T01:40:40;12.60;;;3.60;;
13331;SDS011;6735;51.456;12.626;2023-12-22T01:43:06;8.80;;;2.20;;
13331;SDS011;6735;51.456;12.626;2023-12-22T01:45:31;5.20;;;2.07;;
13331;SDS011;6735;51.456;12.626;2023-12-22T01:47:57;16.00;;;2.70;;
13331;SDS011;6735;51.456;12.626;2023-12-22T01:50:22;7.83;;;2.77;;
13331;SDS011;6735;51.456;12.626;2023-12-22T01:52:49;9.13;;;2.43;;
13331;SDS011;6735;51.456;12.626;2023-12-22T01:55:15;10.33;;;3.03;;
13331;SDS011;6735;51.456;12.626;2023-12-22T01:57:42;7.93;;;2.80;;
13331;SDS011;6735;51.456;12.626;2023-12-22T02:00:09;9.93;;;3.33;;
13331;SDS011;6735;51.456;12.626;2023-12-22T02:02:36;7.10;;;2.63;;
13331;SDS011;6735;51.456;12.626;2023-12-22T02:05:03;11.70;;;3.17;;
13331;SDS011;6735;51.456;12.626;2023-12-22T02:07:29;7.97;;;2.00;;
13331;SDS011;6735;51.456;12.626;2023-12-22T02:09:55;13.63;;;3.87;;
13331;SDS011;6735;51.456;12.626;2023-12-22T02:12:21;12.93;;;3.20;;
13331;SDS011;6735;51.456;12.626;2023-12-22T02:14:46;9.07;;;3.13;;
13331;SDS011;6735;51.456;12.626;2023-12-22T02:17:14;8.33;;;2.47;;
13331;SDS011;6735;51.456;12.626;2023-12-22T02:19:47;11.10;;;2.73;;
13331;SDS011;6735;51.456;12.626;2023-12-22T02:22:13;12.07;;;2.10;;
13331;SDS011;6735;51.456;12.626;2023-12-22T02:24:39;7.30;;;2.13;;
13331;SDS011;6735;51.456;12.626;2023-12-22T02:27:06;6.57;;;2.07;;
13331;SDS011;6735;51.456;12.626;2023-12-22T02:29:52;9.57;;;3.47;;
13331;SDS011;6735;51.456;12.626;2023-12-22T02:32:27;9.50;;;2.37;;
13331;SDS011;6735;51.456;12.626;2023-12-22T02:34:57;12.07;;;2.93;;
13331;SDS011;6735;51.456;12.626;2023-12-22T02:37:23;10.33;;;3.20;;
13331;SDS011;6735;51.456;12.626;2023-12-22T02:39:51;9.87;;;2.70;;
13331;SDS011;6735;51.456;12.626;2023-12-22T02:42:18;11.83;;;2.40;;
13331;SDS011;6735;51.456;12.626;2023-12-22T02:44:45;13.90;;;3.43;;
13331;SDS011;6735;51.456;12.626;2023-12-22T02:47:10;16.60;;;4.70;;
13331;SDS011;6735;51.456;12.626;2023-12-22T02:49:36;20.70;;;5.63;;
13331;SDS011;6735;51.456;12.626;2023-12-22T02:52:01;17.40;;;5.50;;
13331;SDS011;6735;51.456;12.626;2023-12-22T02:54:27;16.20;;;5.30;;
13331;SDS011;6735;51.456;12.626;2023-12-22T02:56:54;12.73;;;5.00;;
13331;SDS011;6735;51.456;12.626;2023-12-22T02:59:20;14.57;;;4.23;;
13331;SDS011;6735;51.456;12.626;2023-12-22T03:01:45;16.17;;;4.70;;
13331;SDS011;6735;51.456;12.626;2023-12-22T03:04:11;8.30;;;3.40;;
13331;SDS011;6735;51.456;12.626;2023-12-22T03:06:36;10.43;;;2.73;;
13331;SDS011;6735;51.456;12.626;2023-12-22T03:09:02;12.37;;;2.70;;
13331;SDS011;6735;51.456;12.626;2023-12-22T03:11:27;11.47;;;3.30;;
13331;SDS011;6735;51.456;12.626;2023-12-22T03:13:53;9.97;;;2.07;;
13331;SDS011;6735;51.456;12.626;2023-12-22T03:16:18;11.33;;;2.63;;
13331;SDS011;6735;51.456;12.626;2023-12-22T03:18:44;9.63;;;2.43;;
13331;SDS011;6735;51.456;12.626;2023-12-22T03:21:15;13.53;;;2.80;;
13331;SDS011;6735;51.456;12.626;2023-12-22T03:23:42;9.63;;;2.50;;
13331;SDS011;6735;51.456;12.626;2023-12-22T03:26:08;14.37;;;2.97;;
13331;SDS011;6735;51.456;12.626;2023-12-22T03:28:33;10.63;;;2.53;;
13331;SDS011;6735;51.456;12.626;2023-12-22T03:30:59;11.57;;;2.93;;
13331;SDS011;6735;51.456;12.626;2023-12-22T03:33:24;11.70;;;2.87;;
13331;SDS011;6735;51.456;12.626;2023-12-22T03:35:49;8.03;;;2.67;;
13331;SDS011;6735;51.456;12.626;2023-12-22T03:38:15;12.30;;;2.47;;
13331;SDS011;6735;51.456;12.626;2023-12-22T03:40:40;5.57;;;1.90;;
13331;SDS011;6735;51.456;12.626;2023-12-22T03:43:06;12.50;;;2.73;;
13331;SDS011;6735;51.456;12.626;2023-12-22T03:45:31;7.07;;;2.40;;
13331;SDS011;6735;51.456;12.626;2023-12-22T03:47:57;11.57;;;2.43;;
13331;SDS011;6735;51.456;12.626;2023-12-22T03:50:22;12.30;;;2.60;;
13331;SDS011;6735;51.456;12.626;2023-12-22T03:52:48;11.40;;;3.53;;
13331;SDS011;6735;51.456;12.626;2023-12-22T03:55:13;12.20;;;2.80;;
13331;SDS011;6735;51.456;12.626;2023-12-22T03:57:38;10.73;;;3.10;;
13331;SDS011;6735;51.456;12.626;2023-12-22T04:00:04;5.23;;;2.20;;
13331;SDS011;6735;51.456;12.626;2023-12-22T04:02:30;9.93;;;2.83;;
13331;SDS011;6735;51.456;12.626;2023-12-22T04:04:55;6.90;;;2.30;;
13331;SDS011;6735;51.456;12.626;2023-12-22T04:07:21;8.27;;;2.43;;
13331;SDS011;6735;51.456;12.626;2023-12-22T04:09:46;9.23;;;2.20;;
13331;SDS011;6735;51.456;12.626;2023-12-22T04:12:12;11.53;;;2.57;;
13331;SDS011;6735;51.456;12.626;2023-12-22T04:14:38;6.30;;;2.07;;
13331;SDS011;6735;51.456;12.626;2023-12-22T04:17:03;5.77;;;2.33;;
13331;SDS011;6735;51.456;12.626;2023-12-22T04:19:29;9.63;;;2.37;;
13331;SDS011;6735;51.456;12.626;2023-12-22T04:21:54;6.23;;;3.20;;
13331;SDS011;6735;51.456;12.626;2023-12-22T04:24:20;4.57;;;2.20;;
13331;SDS011;6735;51.456;12.626;2023-12-22T04:26:45;11.10;;;2.30;;
13331;SDS011;6735;51.456;12.626;2023-12-22T04:29:10;8.77;;;2.27;;
13331;SDS011;6735;51.456;12.626;2023-12-22T04:31:36;10.13;;;2.83;;
13331;SDS011;6735;51.456;12.626;2023-12-22T04:34:01;5.07;;;1.83;;
13331;SDS011;6735;51.456;12.626;2023-12-22T04:36:27;5.67;;;2.80;;
13331;SDS011;6735;51.456;12.626;2023-12-22T04:38:52;8.73;;;2.17;;
13331;SDS011;6735;51.456;12.626;2023-12-22T04:41:18;6.03;;;1.77;;
13331;SDS011;6735;51.456;12.626;2023-12-22T04:43:43;9.50;;;2.40;;
13331;SDS011;6735;51.456;12.626;2023-12-22T04:46:09;5.27;;;1.53;;
13331;SDS011;6735;51.456;12.626;2023-12-22T04:48:34;5.70;;;2.07;;
13331;SDS011;6735;51.456;12.626;2023-12-22T04:50:59;4.20;;;1.80;;
13331;SDS011;6735;51.456;12.626;2023-12-22T04:53:25;4.57;;;1.83;;
13331;SDS011;6735;51.456;12.626;2023-12-22T04:55:50;6.43;;;2.63;;
13331;SDS011;6735;51.456;12.626;2023-12-22T04:58:16;5.40;;;1.67;;
13331;SDS011;6735;51.456;12.626;2023-12-22T05:00:41;6.70;;;1.97;;
13331;SDS011;6735;51.456;12.626;2023-12-22T05:03:07;8.37;;;2.33;;
13331;SDS011;6735;51.456;12.626;2023-12-22T05:05:32;3.20;;;1.43;;
13331;SDS011;6735;51.456;12.626;2023-12-22T05:07:58;4.57;;;1.70;;
13331;SDS011;6735;51.456;12.626;2023-12-22T05:10:24;7.43;;;1.50;;
13331;SDS011;6735;51.456;12.626;2023-12-22T05:12:49;7.13;;;2.00;;
13331;SDS011;6735;51.456;12.626;2023-12-22T05:15:14;5.70;;;1.87;;
13331;SDS011;6735;51.456;12.626;2023-12-22T05:17:40;4.50;;;1.40;;
13331;SDS011;6735;51.456;12.626;2023-12-22T05:20:06;5.60;;;1.40;;
13331;SDS011;6735;51.456;12.626;2023-12-22T05:22:31;4.27;;;1.80;;
13331;SDS011;6735;51.456;12.626;2023-12-22T05:24:57;5.20;;;1.30;;
13331;SDS011;6735;51.456;12.626;2023-12-22T05:27:23;4.77;;;1.40;;
13331;SDS011;6735;51.456;12.626;2023-12-22T05:29:51;5.20;;;1.73;;
13331;SDS011;6735;51.456;12.626;2023-12-22T05:32:17;5.10;;;2.27;;
13331;SDS011;6735;51.456;12.626;2023-12-22T05:34:42;9.27;;;1.70;;
13331;SDS011;6735;51.456;12.626;2023-12-22T05:37:08;3.90;;;1.57;;
13331;SDS011;6735;51.456;12.626;2023-12-22T05:39:33;5.83;;;2.20;;
13331;SDS011;6735;51.456;12.626;2023-12-22T05:41:59;2.00;;;1.40;;
13331;SDS011;6735;51.456;12.626;2023-12-22T05:44:24;6.07;;;1.97;;
13331;SDS011;6735;51.456;12.626;2023-12-22T05:46:54;4.50;;;1.73;;
13331;SDS011;6735;51.456;12.626;2023-12-22T05:49:20;4.83;;;1.60;;
13331;SDS011;6735;51.456;12.626;2023-12-22T05:51:45;4.27;;;2.23;;
13331;SDS011;6735;51.456;12.626;2023-12-22T05:54:11;5.60;;;1.67;;
13331;SDS011;6735;51.456;12.626;2023-12-22T05:56:37;5.17;;;1.83;;
13331;SDS011;6735;51.456;12.626;2023-12-22T05:59:02;4.40;;;1.67;;
13331;SDS011;6735;51.456;12.626;2023-12-22T06:01:28;3.73;;;1.70;;
13331;SDS011;6735;51.456;12.626;2023-12-22T06:03:54;7.27;;;2.00;;
13331;SDS011;6735;51.456;12.626;2023-12-22T06:06:19;6.30;;;1.73;;
13331;SDS011;6735;51.456;12.626;2023-12-22T06:08:45;6.07;;;1.57;;
13331;SDS011;6735;51.456;12.626;2023-12-22T06:11:11;6.37;;;2.03;;
13331;SDS011;6735;51.456;12.626;2023-12-22T06:13:36;6.53;;;2.03;;
13331;SDS011;6735;51.456;12.626;2023-12-22T06:16:02;7.20;;;2.22;;
13331;SDS011;6735;51.456;12.626;2023-12-22T06:18:28;5.40;;;2.37;;
13331;SDS011;6735;51.456;12.626;2023-12-22T06:20:53;3.37;;;2.27;;
13331;SDS011;6735;51.456;12.626;2023-12-22T06:23:19;2.33;;;1.40;;
13331;SDS011;6735;51.456;12.626;2023-12-22T06:25:44;4.00;;;1.50;;
13331;SDS011;6735;51.456;12.626;2023-12-22T06:28:11;4.20;;;1.50;;
13331;SDS011;6735;51.456;12.626;2023-12-22T06:30:37;8.33;;;2.03;;
13331;SDS011;6735;51.456;12.626;2023-12-22T06:33:02;9.00;;;2.37;;
13331;SDS011;6735;51.456;12.626;2023-12-22T06:35:28;9.10;;;2.60;;
13331;SDS011;6735;51.456;12.626;2023-12-22T06:37:54;7.37;;;2.67;;
13331;SDS011;6735;51.456;12.626;2023-12-22T06:40:20;7.77;;;2.03;;
13331;SDS011;6735;51.456;12.626;2023-12-22T06:42:46;6.80;;;2.27;;
13331;SDS011;6735;51.456;12.626;2023-12-22T06:45:11;8.40;;;2.60;;
13331;SDS011;6735;51.456;12.626;2023-12-22T06:47:37;5.77;;;1.93;;
13331;SDS011;6735;51.456;12.626;2023-12-22T06:50:02;6.10;;;2.50;;
13331;SDS011;6735;51.456;12.626;2023-12-22T06:52:28;3.77;;;2.43;;
13331;SDS011;6735;51.456;12.626;2023-12-22T06:54:55;6.13;;;1.80;;
13331;SDS011;6735;51.456;12.626;2023-12-22T06:57:21;4.13;;;1.87;;
13331;SDS011;6735;51.456;12.626;2023-12-22T06:59:47;7.07;;;1.80;;
13331;SDS011;6735;51.456;12.626;2023-12-22T07:02:14;6.90;;;1.60;;
13331;SDS011;6735;51.456;12.626;2023-12-22T07:04:59;5.80;;;1.57;;
13331;SDS011;6735;51.456;12.626;2023-12-22T07:07:33;6.30;;;1.77;;
13331;SDS011;6735;51.456;12.626;2023-12-22T07:09:59;5.33;;;1.90;;
13331;SDS011;6735;51.456;12.626;2023-12-22T07:12:24;7.20;;;1.97;;
13331;SDS011;6735;51.456;12.626;2023-12-22T07:14:50;7.10;;;2.37;;
13331;SDS011;6735;51.456;12.626;2023-12-22T07:17:15;3.00;;;1.47;;
13331;SDS011;6735;51.456;12.626;2023-12-22T07:19:40;2.80;;;1.63;;
13331;SDS011;6735;51.456;12.626;2023-12-22T07:22:06;2.17;;;1.70;;
13331;SDS011;6735;51.456;12.626;2023-12-22T07:24:32;2.07;;;1.10;;
13331;SDS011;6735;51.456;12.626;2023-12-22T07:26:57;3.57;;;1.73;;
13331;SDS011;6735;51.456;12.626;2023-12-22T07:29:22;1.57;;;1.30;;
13331;SDS011;6735;51.456;12.626;2023-12-22T07:31:48;2.33;;;1.20;;
13331;SDS011;6735;51.456;12.626;2023-12-22T07:34:13;2.37;;;1.17;;
13331;SDS011;6735;51.456;12.626;2023-12-22T07:36:40;1.50;;;1.40;;
13331;SDS011;6735;51.456;12.626;2023-12-22T07:39:05;1.37;;;1.10;;
13331;SDS011;6735;51.456;12.626;2023-12-22T07:41:31;2.57;;;1.80;;
13331;SDS011;6735;51.456;12.626;2023-12-22T07:43:57;3.73;;;1.80;;
13331;SDS011;6735;51.456;12.626;2023-12-22T07:46:22;4.63;;;2.43;;
13331;SDS011;6735;51.456;12.626;2023-12-22T07:48:48;3.23;;;1.80;;
13331;SDS011;6735;51.456;12.626;2023-12-22T07:51:14;2.73;;;1.57;;
13331;SDS011;6735;51.456;12.626;2023-12-22T07:53:39;3.30;;;1.70;;
13331;SDS011;6735;51.456;12.626;2023-12-22T07:56:05;6.57;;;1.97;;
13331;SDS011;6735;51.456;12.626;2023-12-22T07:58:31;3.73;;;1.77;;
13331;SDS011;6735;51.456;12.626;2023-12-22T08:00:57;6.27;;;2.10;;
13331;SDS011;6735;51.456;12.626;2023-12-22T08:03:23;6.10;;;2.00;;
13331;SDS011;6735;51.456;12.626;2023-12-22T08:05:49;7.63;;;2.53;;
13331;SDS011;6735;51.456;12.626;2023-12-22T08:08:14;7.47;;;1.83;;
13331;SDS011;6735;51.456;12.626;2023-12-22T08:10:40;9.23;;;2.03;;
13331;SDS011;6735;51.456;12.626;2023-12-22T08:13:06;7.87;;;2.47;;
13331;SDS011;6735;51.456;12.626;2023-12-22T08:15:31;7.80;;;2.07;;
13331;SDS011;6735;51.456;12.626;2023-12-22T08:17:57;10.20;;;2.50;;
13331;SDS011;6735;51.456;12.626;2023-12-22T08:20:22;5.03;;;2.00;;
13331;SDS011;6735;51.456;12.626;2023-12-22T08:22:48;10.17;;;1.70;;
13331;SDS011;6735;51.456;12.626;2023-12-22T08:25:15;4.83;;;2.00;;
13331;SDS011;6735;51.456;12.626;2023-12-22T08:27:41;5.03;;;1.70;;
13331;SDS011;6735;51.456;12.626;2023-12-22T08:30:07;5.53;;;1.60;;
13331;SDS011;6735;51.456;12.626;2023-12-22T08:32:33;3.93;;;1.50;;
13331;SDS011;6735;51.456;12.626;2023-12-22T08:34:59;2.10;;;1.07;;
13331;SDS011;6735;51.456;12.626;2023-12-22T08:37:24;4.27;;;1.30;;
13331;SDS011;6735;51.456;12.626;2023-12-22T08:39:50;1.87;;;1.30;;
13331;SDS011;6735;51.456;12.626;2023-12-22T08:42:16;1.60;;;1.50;;
13331;SDS011;6735;51.456;12.626;2023-12-22T08:44:42;3.20;;;1.70;;
13331;SDS011;6735;51.456;12.626;2023-12-22T08:47:07;2.83;;;1.57;;
13331;SDS011;6735;51.456;12.626;2023-12-22T08:49:33;1.30;;;1.20;;
13331;SDS011;6735;51.456;12.626;2023-12-22T08:51:58;2.50;;;1.33;;
13331;SDS011;6735;51.456;12.626;2023-12-22T08:54:24;2.90;;;1.57;;
13331;SDS011;6735;51.456;12.626;2023-12-22T08:56:49;3.83;;;2.30;;
13331;SDS011;6735;51.456;12.626;2023-12-22T08:59:15;6.33;;;1.93;;
13331;SDS011;6735;51.456;12.626;2023-12-22T09:01:41;4.17;;;1.23;;
13331;SDS011;6735;51.456;12.626;2023-12-22T09:04:07;3.83;;;2.10;;
13331;SDS011;6735;51.456;12.626;2023-12-22T09:06:34;6.13;;;1.90;;
13331;SDS011;6735;51.456;12.626;2023-12-22T09:08:59;4.00;;;1.23;;
13331;SDS011;6735;51.456;12.626;2023-12-22T09:11:25;6.33;;;1.60;;
13331;SDS011;6735;51.456;12.626;2023-12-22T09:13:50;4.00;;;1.57;;
13331;SDS011;6735;51.456;12.626;2023-12-22T09:16:20;2.17;;;1.33;;
13331;SDS011;6735;51.456;12.626;2023-12-22T09:18:46;5.73;;;1.87;;
13331;SDS011;6735;51.456;12.626;2023-12-22T09:21:12;3.87;;;1.93;;
13331;SDS011;6735;51.456;12.626;2023-12-22T09:23:37;2.53;;;1.60;;
13331;SDS011;6735;51.456;12.626;2023-12-22T09:26:03;3.47;;;1.50;;
13331;SDS011;6735;51.456;12.626;2023-12-22T09:28:29;7.93;;;2.20;;
13331;SDS011;6735;51.456;12.626;2023-12-22T09:30:55;5.30;;;1.80;;
13331;SDS011;6735;51.456;12.626;2023-12-22T09:33:20;3.03;;;1.40;;
13331;SDS011;6735;51.456;12.626;2023-12-22T09:35:47;2.83;;;2.03;;
13331;SDS011;6735;51.456;12.626;2023-12-22T09:38:13;3.80;;;1.53;;
13331;SDS011;6735;51.456;12.626;2023-12-22T09:40:39;2.20;;;2.03;;
13331;SDS011;6735;51.456;12.626;2023-12-22T09:43:05;3.33;;;1.40;;
13331;SDS011;6735;51.456;12.626;2023-12-22T09:45:32;4.67;;;1.60;;
13331;SDS011;6735;51.456;12.626;2023-12-22T09:47:59;4.30;;;1.80;;
13331;SDS011;6735;51.456;12.626;2023-12-22T09:50:26;4.17;;;1.30;;
13331;SDS011;6735;51.456;12.626;2023-12-22T09:52:54;4.90;;;1.90;;
13331;SDS011;6735;51.456;12.626;2023-12-22T09:55:21;8.83;;;1.70;;
13331;SDS011;6735;51.456;12.626;2023-12-22T09:57:47;4.00;;;1.40;;
13331;SDS011;6735;51.456;12.626;2023-12-22T10:00:14;1.40;;;1.30;;
13331;SDS011;6735;51.456;12.626;2023-12-22T10:02:40;3.93;;;1.70;;
13331;SDS011;6735;51.456;12.626;2023-12-22T10:05:07;3.73;;;1.93;;
13331;SDS011;6735;51.456;12.626;2023-12-22T10:07:33;1.30;;;1.20;;
13331;SDS011;6735;51.456;12.626;2023-12-22T10:10:00;4.17;;;1.60;;
13331;SDS011;6735;51.456;12.626;2023-12-22T10:12:26;3.43;;;1.73;;
13331;SDS011;6735;51.456;12.626;2023-12-22T10:14:52;4.30;;;2.10;;
13331;SDS011;6735;51.456;12.626;2023-12-22T10:17:19;6.10;;;2.50;;
13331;SDS011;6735;51.456;12.626;2023-12-22T10:19:44;2.57;;;1.70;;
13331;SDS011;6735;51.456;12.626;2023-12-22T10:22:10;3.10;;;2.00;;
13331;SDS011;6735;51.456;12.626;2023-12-22T10:24:37;2.43;;;1.70;;
13331;SDS011;6735;51.456;12.626;2023-12-22T10:27:09;2.70;;;1.40;;
13331;SDS011;6735;51.456;12.626;2023-12-22T10:29:35;3.73;;;1.67;;
13331;SDS011;6735;51.456;12.626;2023-12-22T10:32:02;4.03;;;1.57;;
13331;SDS011;6735;51.456;12.626;2023-12-22T10:34:29;2.00;;;1.70;;
13331;SDS011;6735;51.456;12.626;2023-12-22T10:36:55;2.77;;;1.90;;
13331;SDS011;6735;51.456;12.626;2023-12-22T10:39:31;3.37;;;1.77;;
13331;SDS011;6735;51.456;12.626;2023-12-22T10:41:57;1.30;;;1.20;;
13331;SDS011;6735;51.456;12.626;2023-12-22T10:44:24;4.73;;;2.23;;
13331;SDS011;6735;51.456;12.626;2023-12-22T10:46:50;3.97;;;1.67;;
13331;SDS011;6735;51.456;12.626;2023-12-22T10:49:16;6.93;;;1.60;;
13331;SDS011;6735;51.456;12.626;2023-12-22T10:51:41;3.93;;;1.90;;
13331;SDS011;6735;51.456;12.626;2023-12-22T10:54:07;7.80;;;1.83;;
13331;SDS011;6735;51.456;12.626;2023-12-22T10:56:33;5.73;;;1.60;;
13331;SDS011;6735;51.456;12.626;2023-12-22T10:58:59;4.37;;;1.63;;
13331;SDS011;6735;51.456;12.626;2023-12-22T11:01:27;4.13;;;1.83;;
13331;SDS011;6735;51.456;12.626;2023-12-22T11:04:01;2.43;;;1.77;;
13331;SDS011;6735;51.456;12.626;2023-12-22T11:06:27;4.27;;;1.70;;
13331;SDS011;6735;51.456;12.626;2023-12-22T11:08:56;6.47;;;1.90;;
13331;SDS011;6735;51.456;12.626;2023-12-22T11:11:26;4.43;;;1.80;;
13331;SDS011;6735;51.456;12.626;2023-12-22T11:13:57;3.20;;;1.80;;
13331;SDS011;6735;51.456;12.626;2023-12-22T11:16:24;8.60;;;2.73;;
13331;SDS011;6735;51.456;12.626;2023-12-22T11:18:53;7.70;;;1.80;;
13331;SDS011;6735;51.456;12.626;2023-12-22T11:21:22;6.43;;;2.60;;
13331;SDS011;6735;51.456;12.626;2023-12-22T11:23:51;8.63;;;2.63;;
13331;SDS011;6735;51.456;12.626;2023-12-22T11:26:18;7.50;;;2.07;;
13331;SDS011;6735;51.456;12.626;2023-12-22T11:28:45;8.73;;;1.90;;
13331;SDS011;6735;51.456;12.626;2023-12-22T11:31:11;9.97;;;3.10;;
13331;SDS011;6735;51.456;12.626;2023-12-22T11:33:38;7.23;;;2.20;;
13331;SDS011;6735;51.456;12.626;2023-12-22T11:36:07;10.83;;;2.43;;
13331;SDS011;6735;51.456;12.626;2023-12-22T11:38:34;8.43;;;3.27;;
13331;SDS011;6735;51.456;12.626;2023-12-22T11:41:01;12.43;;;3.10;;
13331;SDS011;6735;51.456;12.626;2023-12-22T11:43:27;7.23;;;2.10;;
13331;SDS011;6735;51.456;12.626;2023-12-22T11:45:54;4.00;;;2.20;;
13331;SDS011;6735;51.456;12.626;2023-12-22T11:48:19;2.20;;;1.10;;
13331;SDS011;6735;51.456;12.626;2023-12-22T11:50:46;3.63;;;1.70;;
13331;SDS011;6735;51.456;12.626;2023-12-22T11:53:19;2.40;;;1.80;;
13331;SDS011;6735;51.456;12.626;2023-12-22T11:56:01;5.47;;;1.60;;
13331;SDS011;6735;51.456;12.626;2023-12-22T12:01:23;2.47;;;1.30;;
13331;SDS011;6735;51.456;12.626;2023-12-22T12:08:51;1.20;;;1.10;;
13331;SDS011;6735;51.456;12.626;2023-12-22T12:11:18;2.33;;;1.30;;
13331;SDS011;6735;51.456;12.626;2023-12-22T12:13:44;3.40;;;1.70;;
13331;SDS011;6735;51.456;12.626;2023-12-22T12:16:14;3.97;;;1.90;;
13331;SDS011;6735;51.456;12.626;2023-12-22T12:18:46;1.83;;;1.30;;
13331;SDS011;6735;51.456;12.626;2023-12-22T12:21:12;2.33;;;1.53;;
13331;SDS011;6735;51.456;12.626;2023-12-22T12:23:38;3.23;;;1.40;;
13331;SDS011;6735;51.456;12.626;2023-12-22T12:26:06;2.00;;;1.30;;
13331;SDS011;6735;51.456;12.626;2023-12-22T12:28:33;1.27;;;1.23;;
13331;SDS011;6735;51.456;12.626;2023-12-22T12:31:00;2.93;;;1.50;;
13331;SDS011;6735;51.456;12.626;2023-12-22T12:33:30;1.97;;;1.70;;
13331;SDS011;6735;51.456;12.626;2023-12-22T12:35:56;1.57;;;1.40;;
13331;SDS011;6735;51.456;12.626;2023-12-22T12:38:23;4.43;;;1.70;;
13331;SDS011;6735;51.456;12.626;2023-12-22T12:41:00;1.90;;;1.70;;
13331;SDS011;6735;51.456;12.626;2023-12-22T12:43:29;4.50;;;1.70;;
13331;SDS011;6735;51.456;12.626;2023-12-22T12:45:54;2.30;;;1.33;;
13331;SDS011;6735;51.456;12.626;2023-12-22T12:48:19;1.33;;;1.00;;
13331;SDS011;6735;51.456;12.626;2023-12-22T12:50:47;2.57;;;1.30;;
13331;SDS011;6735;51.456;12.626;2023-12-22T12:53:12;1.50;;;1.40;;
13331;SDS011;6735;51.456;12.626;2023-12-22T12:55:38;1.40;;;1.30;;
13331;SDS011;6735;51.456;12.626;2023-12-22T12:58:04;1.97;;;1.57;;
13331;SDS011;6735;51.456;12.626;2023-12-22T13:00:30;3.73;;;1.80;;
13331;SDS011;6735;51.456;12.626;2023-12-22T13:03:00;1.77;;;1.67;;
13331;SDS011;6735;51.456;12.626;2023-12-22T13:05:30;2.60;;;1.70;;
13331;SDS011;6735;51.456;12.626;2023-12-22T13:10:59;2.90;;;1.70;;
13331;SDS011;6735;51.456;12.626;2023-12-22T13:13:26;2.30;;;1.70;;
13331;SDS011;6735;51.456;12.626;2023-12-22T13:15:51;1.70;;;1.60;;
13331;SDS011;6735;51.456;12.626;2023-12-22T13:18:17;3.33;;;1.40;;
13331;SDS011;6735;51.456;12.626;2023-12-22T13:20:43;1.80;;;1.70;;
13331;SDS011;6735;51.456;12.626;2023-12-22T13:23:08;2.50;;;1.20;;
13331;SDS011;6735;51.456;12.626;2023-12-22T13:25:38;1.70;;;1.50;;
13331;SDS011;6735;51.456;12.626;2023-12-22T13:28:04;1.50;;;1.40;;
13331;SDS011;6735;51.456;12.626;2023-12-22T13:30:36;1.73;;;1.40;;
13331;SDS011;6735;51.456;12.626;2023-12-22T13:33:05;2.07;;;1.40;;
13331;SDS011;6735;51.456;12.626;2023-12-22T13:35:30;2.33;;;1.80;;
13331;SDS011;6735;51.456;12.626;2023-12-22T13:37:57;3.57;;;2.17;;
13331;SDS011;6735;51.456;12.626;2023-12-22T13:40:23;1.70;;;1.60;;
13331;SDS011;6735;51.456;12.626;2023-12-22T13:42:55;2.23;;;2.00;;
13331;SDS011;6735;51.456;12.626;2023-12-22T13:45:28;2.77;;;2.03;;
13331;SDS011;6735;51.456;12.626;2023-12-22T13:47:55;3.17;;;2.50;;
13331;SDS011;6735;51.456;12.626;2023-12-22T13:50:21;5.93;;;3.70;;
13331;SDS011;6735;51.456;12.626;2023-12-22T13:52:50;3.00;;;2.70;;
13331;SDS011;6735;51.456;12.626;2023-12-22T13:55:16;3.93;;;3.20;;
13331;SDS011;6735;51.456;12.626;2023-12-22T13:57:43;3.00;;;2.70;;
13331;SDS011;6735;51.456;12.626;2023-12-22T14:02:43;3.80;;;2.03;;
13331;SDS011;6735;51.456;12.626;2023-12-22T14:05:14;3.40;;;2.70;;
13331;SDS011;6735;51.456;12.626;2023-12-22T14:07:45;4.93;;;2.30;;
13331;SDS011;6735;51.456;12.626;2023-12-22T14:10:11;11.17;;;3.87;;
13331;SDS011;6735;51.456;12.626;2023-12-22T14:12:37;4.10;;;2.57;;
13331;SDS011;6735;51.456;12.626;2023-12-22T14:15:07;6.50;;;2.87;;
13331;SDS011;6735;51.456;12.626;2023-12-22T14:17:36;4.63;;;2.40;;
13331;SDS011;6735;51.456;12.626;2023-12-22T14:20:02;3.67;;;2.10;;
13331;SDS011;6735;51.456;12.626;2023-12-22T14:22:29;4.17;;;2.10;;
13331;SDS011;6735;51.456;12.626;2023-12-22T14:24:55;6.27;;;2.00;;
13331;SDS011;6735;51.456;12.626;2023-12-22T14:27:22;5.63;;;2.00;;
13331;SDS011;6735;51.456;12.626;2023-12-22T14:29:48;4.17;;;2.17;;
13331;SDS011;6735;51.456;12.626;2023-12-22T14:32:14;2.50;;;2.00;;
13331;SDS011;6735;51.456;12.626;2023-12-22T14:34:45;2.70;;;2.20;;
13331;SDS011;6735;51.456;12.626;2023-12-22T14:37:11;3.13;;;2.40;;
13331;SDS011;6735;51.456;12.626;2023-12-22T14:39:37;3.47;;;2.37;;
13331;SDS011;6735;51.456;12.626;2023-12-22T14:42:02;7.37;;;2.70;;
13331;SDS011;6735;51.456;12.626;2023-12-22T14:44:28;4.30;;;2.60;;
13331;SDS011;6735;51.456;12.626;2023-12-22T14:46:54;5.97;;;2.83;;
13331;SDS011;6735;51.456;12.626;2023-12-22T14:49:19;3.57;;;2.27;;
13331;SDS011;6735;51.456;12.626;2023-12-22T14:51:45;4.87;;;3.07;;
13331;SDS011;6735;51.456;12.626;2023-12-22T14:54:21;5.33;;;2.70;;